Time;durP1;ratioP1;P1;durP2;ratioP2;P2;SDS_P1;SDS_P2;PMS_P1;PMS_P2;Temp;Humidity;BMP_temperature;BMP_pressure;BME280_temperature;BME280_humidity;BME280_pressure;Samples;Min_cycle;Max_cycle;Signal;HPM_P1;HPM_P2
2023/12/10 00:01:50;;;;;;;5.75;1.20;;;;;;;8.04;65.07;98491.72;4999150;28;20074;-49
2023/12/10 00:04:17;;;;;;;8.77;1.13;;;;;;;8.01;64.60;98506.41;5003986;28;20045;-45
2023/12/10 00:06:44;;;;;;;7.45;1.25;;;;;;;7.93;65.28;98503.94;5009971;28;20053;-58
2023/12/10 00:09:11;;;;;;;7.95;1.23;;;;;;;7.96;64.74;98534.84;5006421;28;20049;-51
2023/12/10 00:11:38;;;;;;;4.15;0.88;;;;;;;7.82;64.82;98517.03;5003779;28;20132;-46
2023/12/10 00:14:05;;;;;;;8.30;0.82;;;;;;;7.92;64.83;98528.91;5002076;28;20049;-48
2023/12/10 00:16:32;;;;;;;6.25;1.38;;;;;;;7.93;64.84;98530.59;5005421;28;20117;-49
2023/12/10 00:18:59;;;;;;;11.07;1.38;;;;;;;7.87;65.58;98535.84;5006414;28;20133;-54
2023/12/10 00:21:26;;;;;;;3.67;1.20;;;;;;;7.79;65.30;98548.00;5006930;28;20064;-47
2023/12/10 00:23:53;;;;;;;14.68;2.28;;;;;;;7.85;65.03;98550.50;5004947;28;20049;-45
2023/12/10 00:26:19;;;;;;;8.60;2.28;;;;;;;7.70;65.58;98564.47;5000922;28;20050;-41
2023/12/10 00:28:46;;;;;;;6.93;1.08;;;;;;;7.74;64.71;98565.28;5002059;28;20505;-44
2023/12/10 00:31:13;;;;;;;12.55;1.63;;;;;;;7.69;65.90;98573.06;5002782;28;20038;-54
2023/12/10 00:33:39;;;;;;;3.03;0.98;;;;;;;7.63;66.17;98584.31;5009602;28;20081;-45
2023/12/10 00:36:07;;;;;;;10.55;1.55;;;;;;;7.66;65.21;98594.59;5011155;28;20215;-49
2023/12/10 00:38:34;;;;;;;4.45;1.48;;;;;;;7.64;66.07;98596.34;5008081;28;20038;-48
2023/12/10 00:41:02;;;;;;;13.98;1.50;;;;;;;7.64;65.24;98601.50;4998245;28;20060;-47
2023/12/10 00:43:29;;;;;;;10.85;1.30;;;;;;;7.61;66.48;98632.47;5003661;28;20410;-52
2023/12/10 00:45:56;;;;;;;4.70;1.15;;;;;;;7.52;66.46;98642.88;5000774;28;20050;-50
2023/12/10 00:48:23;;;;;;;6.90;1.50;;;;;;;7.53;66.66;98639.44;5004474;28;20046;-52
2023/12/10 00:50:50;;;;;;;8.52;1.10;;;;;;;7.56;66.58;98652.25;5005188;28;20059;-52
2023/12/10 00:53:16;;;;;;;10.68;1.10;;;;;;;7.56;65.44;98666.00;5002338;28;21176;-47
2023/12/10 00:55:44;;;;;;;11.88;2.40;;;;;;;7.54;65.58;98666.91;5002181;28;20049;-48
2023/12/10 00:58:13;;;;;;;5.97;1.40;;;;;;;7.55;66.75;98668.59;4991649;28;20057;-48
2023/12/10 01:00:41;;;;;;;6.35;1.60;;;;;;;7.55;65.80;98669.47;4980150;28;20077;-43
2023/12/10 01:03:08;;;;;;;4.43;1.08;;;;;;;7.50;65.68;98686.69;4980988;28;20050;-56
2023/12/10 01:05:35;;;;;;;6.70;0.85;;;;;;;7.53;65.70;98701.28;4979222;28;20049;-53
2023/12/10 01:08:03;;;;;;;7.75;1.85;;;;;;;7.46;66.42;98706.50;4976432;28;20550;-50
2023/12/10 01:10:30;;;;;;;8.57;1.65;;;;;;;7.54;66.12;98708.13;4994600;28;20475;-50
2023/12/10 01:12:57;;;;;;;5.90;1.08;;;;;;;7.45;66.98;98699.66;5005872;28;20045;-46
2023/12/10 01:15:31;;;;;;;6.15;1.00;;;;;;;7.45;65.86;98712.53;5004486;28;20098;-50
2023/12/10 01:18:02;;;;;;;13.65;2.00;;;;;;;7.53;66.83;98711.59;5009554;28;20081;-46
2023/12/10 01:20:31;;;;;;;6.68;1.17;;;;;;;7.46;66.01;98708.22;5001267;28;20053;-43
2023/12/10 01:22:59;;;;;;;9.95;1.60;;;;;;;7.43;66.03;98721.97;4997007;28;20057;-47
2023/12/10 01:25:26;;;;;;;12.45;2.97;;;;;;;7.44;67.38;98728.84;5003959;28;20108;-47
2023/12/10 01:27:53;;;;;;;8.95;1.52;;;;;;;7.44;66.28;98749.44;5000490;28;20041;-50
2023/12/10 01:30:23;;;;;;;4.30;1.80;;;;;;;7.33;66.81;98741.84;5013950;28;20367;-46
2023/12/10 01:32:53;;;;;;;7.40;1.67;;;;;;;7.33;67.06;98736.69;4976159;28;20698;-47
2023/12/10 01:35:20;;;;;;;11.02;1.23;;;;;;;7.37;66.28;98745.25;4979540;28;20575;-43
2023/12/10 01:37:48;;;;;;;7.13;1.85;;;;;;;7.39;67.01;98751.22;4983301;28;20043;-45
2023/12/10 01:40:16;;;;;;;8.98;1.23;;;;;;;7.37;66.69;98742.69;4993184;28;20054;-47
2023/12/10 01:42:45;;;;;;;6.32;1.95;;;;;;;7.38;66.75;98759.84;4991651;28;20058;-47
2023/12/10 01:45:13;;;;;;;12.15;1.45;;;;;;;7.36;66.67;98743.53;5005720;28;20045;-51
2023/12/10 01:47:43;;;;;;;12.60;1.50;;;;;;;7.32;67.15;98759.88;5006561;28;20076;-41
2023/12/10 01:50:12;;;;;;;10.25;1.45;;;;;;;7.38;67.35;98770.13;5001060;28;20046;-51
2023/12/10 01:52:41;;;;;;;2.03;0.95;;;;;;;7.32;67.19;98759.88;5000762;28;20042;-46
2023/12/10 01:55:11;;;;;;;9.27;2.17;;;;;;;7.33;66.47;98771.91;5006478;28;20054;-46
2023/12/10 01:57:39;;;;;;;;;;;;;;;7.25;66.53;98778.84;5006708;28;20104;-47
2023/12/10 02:00:07;;;;;;;4.70;1.52;;;;;;;7.18;66.86;98796.94;5003940;28;20286;-52
2023/12/10 02:02:37;;;;;;;8.32;1.60;;;;;;;7.19;67.92;98811.50;5005316;28;20519;-48
2023/12/10 02:05:07;;;;;;;8.10;1.52;;;;;;;7.18;68.13;98820.13;4994461;28;20053;-47
2023/12/10 02:07:35;;;;;;;5.88;1.98;;;;;;;7.10;68.31;98821.91;4997341;28;20703;-46
2023/12/10 02:10:05;;;;;;;7.57;1.15;;;;;;;7.15;67.32;98829.56;5005062;28;20046;-49
2023/12/10 02:12:35;;;;;;;;;;;;;;;7.10;68.43;98847.66;5002316;28;20050;-48
2023/12/10 02:15:14;;;;;;;7.70;2.33;;;;;;;7.08;68.43;98849.38;5003734;28;19974;-50
2023/12/10 02:17:42;;;;;;;6.95;2.42;;;;;;;7.13;68.20;98855.34;4983259;28;20058;-47
2023/12/10 02:20:12;;;;;;;11.73;1.90;;;;;;;7.14;68.48;98840.75;4998422;28;20050;-52
2023/12/10 02:22:51;;;;;;;10.10;1.58;;;;;;;7.12;68.51;98861.34;5003154;28;20053;-44
2023/12/10 02:25:38;;;;;;;9.48;1.83;;;;;;;7.09;68.03;98855.38;5003331;28;20053;-50
2023/12/10 02:28:07;;;;;;;5.57;1.40;;;;;;;7.13;68.05;98857.91;5001635;28;20062;-53
2023/12/10 02:30:35;;;;;;;8.32;0.88;;;;;;;7.13;67.58;98859.66;4996231;28;20053;-47
2023/12/10 02:33:02;;;;;;;5.95;1.73;;;;;;;7.15;67.75;98856.19;4988395;28;20108;-44
2023/12/10 02:35:29;;;;;;;8.90;1.33;;;;;;;7.10;67.78;98862.25;4983011;28;20046;-48
2023/12/10 02:37:56;;;;;;;4.15;1.13;;;;;;;7.11;68.98;98858.78;4981027;28;20138;-46
2023/12/10 02:40:23;;;;;;;9.05;1.10;;;;;;;7.09;69.09;98866.53;4995215;28;20048;-45
2023/12/10 02:42:49;;;;;;;6.97;1.30;;;;;;;7.08;67.93;98869.97;4994937;28;20503;-45
2023/12/10 02:45:17;;;;;;;8.77;1.92;;;;;;;7.09;69.15;98866.53;4977539;28;20400;-51
2023/12/10 02:47:44;;;;;;;10.77;1.83;;;;;;;7.12;67.80;98870.81;4983371;28;20050;-47
2023/12/10 02:50:10;;;;;;;4.85;1.58;;;;;;;7.10;68.82;98867.38;4978708;28;20050;-47
2023/12/10 02:52:37;;;;;;;7.30;1.48;;;;;;;7.06;68.56;98876.88;4978576;28;20042;-51
2023/12/10 02:55:05;;;;;;;9.35;1.52;;;;;;;7.03;68.32;98861.44;4979653;28;20042;-48
2023/12/10 02:57:32;;;;;;;4.20;1.65;;;;;;;7.05;69.78;98877.72;4988428;28;20132;-52
2023/12/10 02:59:59;;;;;;;6.90;1.23;;;;;;;7.06;68.82;98876.88;5002491;28;20053;-55
2023/12/10 03:02:26;;;;;;;3.70;0.77;;;;;;;7.01;69.08;98878.59;4988722;28;20140;-50
2023/12/10 03:04:53;;;;;;;4.28;1.20;;;;;;;7.04;68.60;98902.63;5009528;28;20104;-53
2023/12/10 03:07:20;;;;;;;8.10;1.75;;;;;;;7.02;69.17;98903.47;4997494;28;20081;-49
2023/12/10 03:09:46;;;;;;;11.23;2.35;;;;;;;7.06;69.06;98907.78;5004133;28;20050;-53
2023/12/10 03:12:13;;;;;;;9.27;1.20;;;;;;;7.04;69.34;98924.94;5005484;28;20139;-46
2023/12/10 03:14:40;;;;;;;9.95;1.27;;;;;;;6.99;69.68;98937.81;5005692;28;20045;-47
2023/12/10 03:17:07;;;;;;;7.03;1.63;;;;;;;6.89;69.98;98947.31;5002261;28;20057;-46
2023/12/10 03:19:33;;;;;;;9.48;0.82;;;;;;;6.84;69.23;98956.78;5006795;28;20077;-46
2023/12/10 03:22:00;;;;;;;6.25;1.38;;;;;;;6.89;70.45;98961.94;5004334;28;20140;-53
2023/12/10 03:24:27;;;;;;;7.75;1.05;;;;;;;6.95;69.19;98956.72;5007212;28;20499;-43
2023/12/10 03:26:54;;;;;;;4.78;1.13;;;;;;;6.85;70.66;98955.94;4985546;28;20074;-45
2023/12/10 03:29:21;;;;;;;8.25;0.88;;;;;;;6.80;70.02;98958.50;4982708;28;20042;-47
2023/12/10 03:31:47;;;;;;;4.47;1.52;;;;;;;6.79;70.65;98966.28;4982753;28;20049;-49
2023/12/10 03:34:14;;;;;;;5.95;1.20;;;;;;;6.83;70.08;98957.66;4985323;28;20092;-47
2023/12/10 03:36:41;;;;;;;8.95;1.02;;;;;;;6.74;70.35;98966.28;5004196;28;20046;-49
2023/12/10 03:39:07;;;;;;;3.72;0.90;;;;;;;6.76;69.99;98961.13;5008322;28;20128;-47
2023/12/10 03:41:34;;;;;;;6.88;0.82;;;;;;;6.76;70.94;98955.97;5008594;28;20046;-47
2023/12/10 03:44:01;;;;;;;2.15;1.13;;;;;;;6.74;70.25;98968.00;4999783;28;20065;-47
2023/12/10 03:46:28;;;;;;;4.60;0.70;;;;;;;6.71;70.11;98970.56;4999136;28;20052;-49
2023/12/10 03:48:54;;;;;;;5.28;0.50;;;;;;;6.66;69.73;98970.59;4985592;28;20052;-48
2023/12/10 03:51:21;;;;;;;4.15;0.45;;;;;;;6.67;70.24;98983.47;5005109;28;20403;-46
2023/12/10 03:53:48;;;;;;;9.73;1.33;;;;;;;6.62;69.75;98985.19;5008072;28;20086;-49
2023/12/10 03:56:15;;;;;;;4.32;0.90;;;;;;;6.62;70.88;98992.91;5005015;28;20053;-45
2023/12/10 03:58:41;;;;;;;8.02;1.63;;;;;;;6.62;70.22;98990.34;5009868;28;20196;-51
2023/12/10 04:01:08;;;;;;;7.68;0.80;;;;;;;6.61;69.81;98992.91;5007890;28;20073;-50
2023/12/10 04:03:35;;;;;;;5.07;0.75;;;;;;;6.60;70.86;98996.34;5008727;28;20042;-50
2023/12/10 04:06:02;;;;;;;6.45;1.77;;;;;;;6.57;70.48;98997.22;5012153;28;20182;-46
2023/12/10 04:08:28;;;;;;;7.15;1.73;;;;;;;6.58;71.02;99009.22;5008457;28;20045;-44
2023/12/10 04:10:55;;;;;;;10.57;1.60;;;;;;;6.55;70.25;99014.38;4992147;28;20042;-46
2023/12/10 04:13:22;;;;;;;8.90;1.80;;;;;;;6.53;71.50;99016.09;4986026;28;20041;-47
2023/12/10 04:15:48;;;;;;;6.63;1.15;;;;;;;6.49;70.19;99009.25;4980540;28;20054;-44
2023/12/10 04:18:16;;;;;;;6.35;1.23;;;;;;;6.41;72.35;99007.56;4980808;28;20098;-54
2023/12/10 04:20:44;;;;;;;9.07;1.38;;;;;;;6.41;71.32;99007.56;4980591;28;20055;-50
2023/12/10 04:23:11;;;;;;;7.55;1.85;;;;;;;6.39;72.25;98993.84;4999246;28;20414;-43
2023/12/10 04:25:37;;;;;;;6.18;1.15;;;;;;;6.28;71.85;98987.84;5006776;28;20181;-43
2023/12/10 04:28:06;;;;;;;4.38;2.20;;;;;;;6.33;72.51;98993.88;5007206;28;20568;-48
2023/12/10 04:30:33;;;;;;;5.78;1.00;;;;;;;6.32;72.29;99004.16;5005248;28;20042;-44
2023/12/10 04:33:00;;;;;;;5.95;1.13;;;;;;;6.31;72.48;99016.16;5007671;28;20059;-51
2023/12/10 04:35:27;;;;;;;5.32;0.63;;;;;;;6.20;73.96;99007.59;4979910;28;20430;-45
2023/12/10 04:37:54;;;;;;;7.00;0.93;;;;;;;6.28;73.33;99000.72;5002313;28;20550;-47
2023/12/10 04:40:21;;;;;;;6.32;1.35;;;;;;;6.30;72.05;99019.59;5004201;28;20065;-46
2023/12/10 04:42:49;;;;;;;7.13;1.48;;;;;;;6.30;71.85;99004.16;5002409;28;20057;-47
2023/12/10 04:45:16;;;;;;;10.55;1.85;;;;;;;6.32;72.35;98999.00;4984044;28;20047;-52
2023/12/10 04:47:43;;;;;;;3.10;0.75;;;;;;;6.31;71.84;99005.84;5004773;28;20077;-51
2023/12/10 04:50:10;;;;;;;2.47;0.38;;;;;;;6.28;72.84;99011.00;4985577;28;20055;-47
2023/12/10 04:52:37;;;;;;;9.25;1.58;;;;;;;6.32;72.25;99007.59;4979392;28;20522;-50
2023/12/10 04:55:04;;;;;;;4.20;1.10;;;;;;;6.28;73.56;99011.00;5006591;28;20412;-48
2023/12/10 04:57:31;;;;;;;7.85;0.95;;;;;;;6.29;72.77;99015.31;4989848;28;20053;-46
2023/12/10 04:59:57;;;;;;;8.65;1.05;;;;;;;6.29;72.40;99017.88;4996119;28;20074;-45
2023/12/10 05:02:25;;;;;;;6.00;0.90;;;;;;;6.28;72.25;99018.72;4999455;28;20057;-48
2023/12/10 05:04:52;;;;;;;8.50;1.08;;;;;;;6.27;72.52;99009.28;5006547;28;20042;-46
2023/12/10 05:07:18;;;;;;;14.32;1.17;;;;;;;6.28;73.18;99005.84;5008528;28;20045;-48
2023/12/10 05:09:45;;;;;;;3.35;0.75;;;;;;;6.25;72.17;99003.31;5002215;28;20051;-43
2023/12/10 05:12:11;;;;;;;2.53;1.08;;;;;;;6.22;73.66;99000.75;4978927;28;20146;-48
2023/12/10 05:14:38;;;;;;;11.80;1.38;;;;;;;6.17;72.48;99019.59;4989994;28;20065;-53
2023/12/10 05:17:05;;;;;;;6.35;1.40;;;;;;;6.19;73.62;99047.03;4999724;28;20050;-52
2023/12/10 05:19:31;;;;;;;2.50;0.50;;;;;;;6.15;74.37;99057.31;5009088;28;20050;-51
2023/12/10 05:21:58;;;;;;;6.72;1.33;;;;;;;6.17;72.42;99060.75;5005690;28;20045;-44
2023/12/10 05:24:25;;;;;;;8.68;1.52;;;;;;;6.15;73.52;99057.31;4987948;28;20073;-49
2023/12/10 05:26:52;;;;;;;3.38;1.20;;;;;;;6.13;73.89;99059.03;4975953;28;20081;-50
2023/12/10 05:29:18;;;;;;;10.30;1.27;;;;;;;6.16;73.18;99061.63;4994069;28;20054;-50
2023/12/10 05:31:45;;;;;;;5.43;1.10;;;;;;;6.19;73.62;99052.16;5004310;28;20145;-51
2023/12/10 05:34:12;;;;;;;6.43;0.80;;;;;;;6.19;73.83;99049.59;4997652;28;20062;-51
2023/12/10 05:36:39;;;;;;;7.75;1.30;;;;;;;6.19;74.26;99047.03;4983316;28;20412;-48
2023/12/10 05:39:06;;;;;;;14.40;1.77;;;;;;;6.21;74.31;99055.63;5002374;28;20415;-52
2023/12/10 05:41:33;;;;;;;3.78;0.88;;;;;;;6.21;73.25;99050.47;5005394;28;20388;-54
2023/12/10 05:44:00;;;;;;;9.45;1.30;;;;;;;6.22;73.04;99029.03;4989238;28;20072;-54
2023/12/10 05:46:26;;;;;;;13.02;0.88;;;;;;;6.22;73.56;99011.03;4991830;28;20622;-47
2023/12/10 05:48:53;;;;;;;7.03;1.10;;;;;;;6.23;73.13;99017.88;5003847;28;20044;-51
2023/12/10 05:51:20;;;;;;;11.13;1.30;;;;;;;6.21;73.84;99012.75;5013672;28;20051;-50
2023/12/10 05:53:46;;;;;;;7.72;1.00;;;;;;;6.22;74.04;99031.59;5001837;28;20137;-49
2023/12/10 05:56:13;;;;;;;3.70;1.30;;;;;;;6.22;74.60;99036.75;4991223;28;20057;-44
2023/12/10 05:58:40;;;;;;;4.28;1.00;;;;;;;6.21;72.84;99038.44;4992604;28;20077;-43
2023/12/10 06:01:06;;;;;;;9.15;2.85;;;;;;;6.21;74.32;99032.47;4998732;28;21335;-49
2023/12/10 06:03:33;;;;;;;7.45;0.93;;;;;;;6.22;73.37;99036.75;4989490;28;20077;-42
2023/12/10 06:06:00;;;;;;;4.55;1.00;;;;;;;6.21;74.04;99048.72;4985899;28;20096;-48
2023/12/10 06:08:27;;;;;;;8.82;1.10;;;;;;;6.22;73.38;99058.19;4976464;28;20047;-48
2023/12/10 06:10:54;;;;;;;11.15;1.77;;;;;;;6.22;74.52;99060.75;4996287;28;20034;-47
2023/12/10 06:13:21;;;;;;;9.27;1.27;;;;;;;6.22;74.56;99073.63;5001898;28;20049;-51
2023/12/10 06:15:48;;;;;;;2.95;0.73;;;;;;;6.21;74.13;99076.19;4995135;28;20052;-47
2023/12/10 06:18:14;;;;;;;6.47;1.05;;;;;;;6.20;73.64;99079.59;4972441;28;20042;-49
2023/12/10 06:20:41;;;;;;;7.05;0.93;;;;;;;6.17;74.03;99081.31;4983609;28;20046;-54
2023/12/10 06:23:08;;;;;;;2.80;0.73;;;;;;;6.13;74.12;99074.47;4988173;28;20046;-51
2023/12/10 06:25:35;;;;;;;5.55;0.85;;;;;;;6.13;73.96;99066.75;4981251;28;20101;-53
2023/12/10 06:28:02;;;;;;;5.90;0.75;;;;;;;6.12;73.63;99052.16;4993187;28;20144;-54
2023/12/10 06:30:29;;;;;;;5.90;1.13;;;;;;;6.11;74.65;99035.03;5006276;28;20068;-48
2023/12/10 06:32:56;;;;;;;5.60;0.93;;;;;;;6.12;75.68;99021.31;4983077;28;20556;-47
2023/12/10 06:35:23;;;;;;;7.68;0.73;;;;;;;6.13;75.93;99023.03;4999825;28;20608;-54
2023/12/10 06:37:50;;;;;;;7.47;1.00;;;;;;;6.17;74.34;99040.19;4993659;28;20051;-46
2023/12/10 06:40:16;;;;;;;7.93;1.15;;;;;;;6.16;74.45;99051.34;4988269;28;20485;-47
2023/12/10 06:42:43;;;;;;;2.35;1.25;;;;;;;6.16;76.14;99063.31;4998916;28;20054;-47
2023/12/10 06:45:12;;;;;;;7.15;0.95;;;;;;;6.19;75.44;99058.19;4985245;28;20058;-47
2023/12/10 06:47:39;;;;;;;8.05;1.10;;;;;;;6.22;75.67;99063.31;4983653;28;20058;-54
2023/12/10 06:50:06;;;;;;;5.00;0.82;;;;;;;6.25;76.07;99059.88;4989559;28;20045;-44
2023/12/10 06:52:33;;;;;;;2.90;0.75;;;;;;;6.25;75.47;99050.44;4992616;28;20571;-51
2023/12/10 06:55:00;;;;;;;5.30;1.35;;;;;;;6.26;74.96;99028.16;5008468;28;20419;-47
2023/12/10 06:57:27;;;;;;;4.40;0.82;;;;;;;6.26;74.56;99033.31;5010543;28;20133;-51
2023/12/10 06:59:54;;;;;;;2.35;0.60;;;;;;;6.26;74.33;99033.31;5010066;28;20522;-47
2023/12/10 07:02:21;;;;;;;10.30;1.50;;;;;;;6.25;75.28;99039.31;5005531;28;20049;-50
2023/12/10 07:04:48;;;;;;;6.40;1.40;;;;;;;6.25;75.56;99031.59;5007433;28;20049;-50
2023/12/10 07:07:14;;;;;;;12.18;1.38;;;;;;;6.25;75.27;99031.59;5003179;28;20096;-53
2023/12/10 07:09:41;;;;;;;7.90;0.93;;;;;;;6.24;75.04;99047.88;5007807;28;20057;-48
2023/12/10 07:12:08;;;;;;;6.32;0.70;;;;;;;6.24;75.22;99047.88;5001991;28;20070;-46
2023/12/10 07:14:34;;;;;;;5.25;1.08;;;;;;;6.23;75.69;99065.03;5004936;28;20046;-50
2023/12/10 07:17:01;;;;;;;7.18;1.17;;;;;;;6.23;74.84;99054.75;5013426;28;20062;-43
2023/12/10 07:19:28;;;;;;;4.80;1.02;;;;;;;6.22;75.34;99047.03;5013346;28;20108;-47
2023/12/10 07:21:55;;;;;;;6.10;1.35;;;;;;;6.21;75.57;99056.44;5010698;28;20050;-48
2023/12/10 07:24:22;;;;;;;7.28;0.95;;;;;;;6.21;75.15;99055.63;5010932;28;20061;-48
2023/12/10 07:26:50;;;;;;;6.07;0.88;;;;;;;6.21;75.51;99041.03;5007822;28;20057;-48
2023/12/10 07:29:16;;;;;;;2.67;0.75;;;;;;;6.22;74.73;99047.03;5003593;28;20053;-50
2023/12/10 07:31:44;;;;;;;5.78;1.08;;;;;;;6.21;74.56;99045.31;5003762;28;20100;-55
2023/12/10 07:34:11;;;;;;;5.15;2.03;;;;;;;6.20;75.17;99043.59;5001100;28;20414;-45
2023/12/10 07:36:37;;;;;;;7.07;1.30;;;;;;;6.21;74.79;99035.88;5006686;28;20062;-44
2023/12/10 07:39:07;;;;;;;7.63;1.27;;;;;;;6.21;75.58;99035.03;5008308;28;20149;-54
2023/12/10 07:41:34;;;;;;;9.90;1.02;;;;;;;6.21;76.10;99032.47;5006816;28;20148;-52
2023/12/10 07:44:01;;;;;;;3.60;1.55;;;;;;;6.21;75.72;99025.59;5005386;28;20046;-47
2023/12/10 07:46:27;;;;;;;3.90;2.03;;;;;;;6.23;74.85;99023.88;5004869;28;20615;-51
2023/12/10 07:48:54;;;;;;;2.53;0.88;;;;;;;6.23;75.91;99023.88;5003756;28;20054;-49
2023/12/10 07:51:21;;;;;;;4.82;0.90;;;;;;;6.24;76.02;98999.00;5008090;28;20467;-45
2023/12/10 07:53:47;;;;;;;9.02;1.20;;;;;;;6.25;76.11;99005.88;5008055;28;20492;-47
2023/12/10 07:56:14;;;;;;;5.15;0.57;;;;;;;6.24;75.08;99006.72;5002723;28;20104;-47
2023/12/10 07:58:41;;;;;;;5.68;0.85;;;;;;;6.25;75.06;99000.75;5009165;28;20058;-52
2023/12/10 08:01:09;;;;;;;6.47;0.90;;;;;;;6.26;76.01;99002.44;5005177;28;20131;-45
2023/12/10 08:03:36;;;;;;;2.95;1.27;;;;;;;6.28;75.56;99011.00;5007587;28;20112;-57
2023/12/10 08:06:03;;;;;;;5.30;0.70;;;;;;;6.28;75.30;99018.72;5002839;28;20108;-50
2023/12/10 08:08:30;;;;;;;6.50;1.40;;;;;;;6.31;76.45;99013.56;5005806;28;20104;-45
2023/12/10 08:10:57;;;;;;;7.20;1.40;;;;;;;6.32;76.24;99002.44;5013685;28;20100;-52
2023/12/10 08:13:23;;;;;;;2.90;0.95;;;;;;;6.33;75.48;99003.28;5007983;28;20042;-50
2023/12/10 08:15:50;;;;;;;6.57;0.43;;;;;;;6.34;75.87;99013.56;5008434;28;20053;-50
2023/12/10 08:18:17;;;;;;;7.10;1.15;;;;;;;6.37;75.83;99016.16;5008084;28;20073;-42
2023/12/10 08:20:44;;;;;;;5.78;0.73;;;;;;;6.37;76.67;99011.00;5006425;28;20045;-51
2023/12/10 08:23:11;;;;;;;4.22;1.42;;;;;;;6.40;74.99;98999.84;5005715;28;20457;-46
2023/12/10 08:25:37;;;;;;;10.50;1.10;;;;;;;6.41;76.24;98926.94;5002813;28;20113;-47
2023/12/10 08:28:04;;;;;;;7.30;1.58;;;;;;;6.41;75.37;98920.09;5014730;28;20053;-53
2023/12/10 08:30:31;;;;;;;4.47;0.95;;;;;;;6.42;75.57;98919.22;5007198;28;20129;-52
2023/12/10 08:32:58;;;;;;;5.55;0.60;;;;;;;6.43;76.13;98897.78;5009982;28;20052;-50
2023/12/10 08:35:25;;;;;;;3.65;0.95;;;;;;;6.45;76.42;98881.50;5001386;28;20050;-48
2023/12/10 08:37:51;;;;;;;4.28;1.08;;;;;;;6.47;75.22;98866.91;5009790;28;20053;-42
2023/12/10 08:40:18;;;;;;;12.80;1.20;;;;;;;6.47;76.09;98882.34;5010160;28;20132;-49
2023/12/10 08:42:46;;;;;;;4.78;0.75;;;;;;;6.46;75.95;98919.22;5010378;28;20050;-47
2023/12/10 08:45:13;;;;;;;3.28;0.88;;;;;;;6.42;76.09;98918.41;5009411;28;20495;-50
2023/12/10 08:47:40;;;;;;;8.07;0.93;;;;;;;6.39;77.22;98908.94;5008973;28;20054;-42
2023/12/10 08:50:07;;;;;;;2.40;1.27;;;;;;;6.38;76.63;98909.00;5009443;28;20046;-48
2023/12/10 08:52:34;;;;;;;3.20;0.85;;;;;;;6.32;77.55;98894.44;5009148;28;20049;-46
2023/12/10 08:55:01;;;;;;;6.78;0.93;;;;;;;6.38;78.08;98884.09;5011224;28;20053;-48
2023/12/10 08:57:28;;;;;;;3.03;0.40;;;;;;;6.41;76.62;98894.38;5015689;28;20042;-51
2023/12/10 09:00:00;;;;;;;2.05;0.55;;;;;;;6.43;77.47;98877.22;5010806;28;20426;-45
2023/12/10 09:02:27;;;;;;;2.72;0.70;;;;;;;6.46;77.86;98885.78;5010291;28;20050;-46
2023/12/10 09:04:54;;;;;;;1.33;0.88;;;;;;;6.47;77.43;98896.06;5007829;28;20130;-45
2023/12/10 09:07:21;;;;;;;2.45;0.82;;;;;;;6.45;77.91;98895.22;4999060;28;20129;-50
2023/12/10 09:09:48;;;;;;;3.08;0.90;;;;;;;6.48;77.06;98891.78;5003802;28;20056;-45
2023/12/10 09:12:27;;;;;;;4.22;0.70;;;;;;;6.51;76.28;98884.03;5002895;28;20701;-51
2023/12/10 09:14:55;;;;;;;6.68;1.00;;;;;;;6.53;76.33;98866.91;5003411;28;20099;-54
2023/12/10 09:17:22;;;;;;;4.00;1.02;;;;;;;6.55;76.89;98867.72;5008365;28;20052;-49
2023/12/10 09:19:48;;;;;;;8.52;0.93;;;;;;;6.58;76.61;98860.00;5003005;28;20049;-45
2023/12/10 09:22:16;;;;;;;2.80;0.85;;;;;;;6.58;76.69;98834.25;5005832;28;20502;-47
2023/12/10 09:24:42;;;;;;;4.85;0.90;;;;;;;6.61;76.20;98823.97;5009292;28;20056;-50
2023/12/10 09:27:09;;;;;;;5.32;0.70;;;;;;;6.64;77.39;98823.09;5007420;28;20058;-54
2023/12/10 09:29:38;;;;;;;3.95;0.77;;;;;;;6.67;76.43;98807.63;5006023;28;20061;-45
2023/12/10 09:32:06;;;;;;;5.32;1.02;;;;;;;6.69;76.90;98793.06;5000365;28;20082;-49
2023/12/10 09:34:33;;;;;;;7.72;1.73;;;;;;;6.73;77.42;98781.00;5005857;28;20061;-46
2023/12/10 09:37:00;;;;;;;4.55;1.58;;;;;;;6.73;78.63;98758.72;5003626;28;20096;-45
2023/12/10 09:39:27;;;;;;;6.68;1.27;;;;;;;6.77;77.44;98762.09;5004744;28;20565;-44
2023/12/10 09:41:54;;;;;;;2.85;1.10;;;;;;;6.79;78.22;98780.97;5013906;28;20136;-48
2023/12/10 09:44:21;;;;;;;1.40;0.80;;;;;;;6.86;79.17;98787.75;5014006;28;20053;-53
2023/12/10 09:46:48;;;;;;;5.97;1.52;;;;;;;6.89;79.86;98782.59;5011129;28;20506;-51
2023/12/10 09:49:15;;;;;;;4.30;1.17;;;;;;;6.93;81.58;98786.84;5011785;28;20049;-43
2023/12/10 09:51:42;;;;;;;7.78;1.52;;;;;;;7.01;80.59;98791.06;5003262;28;20045;-50
2023/12/10 09:54:09;;;;;;;10.20;2.05;;;;;;;7.07;81.11;98796.19;5006591;28;20054;-46
2023/12/10 09:56:35;;;;;;;6.65;0.90;;;;;;;7.09;81.69;98784.13;5003591;28;20385;-50
2023/12/10 09:59:02;;;;;;;4.15;1.15;;;;;;;7.13;81.58;98767.78;5004924;28;20049;-49
2023/12/10 10:01:39;;;;;;;8.30;1.38;;;;;;;7.18;80.08;98767.75;5009419;28;20038;-47
2023/12/10 10:04:06;;;;;;;5.75;1.23;;;;;;;7.23;81.03;98781.44;4996423;28;20301;-46
2023/12/10 10:06:33;;;;;;;7.57;1.85;;;;;;;7.28;81.40;98773.66;5000011;28;20559;-40
2023/12/10 10:09:00;;;;;;;9.30;1.38;;;;;;;7.33;80.14;98774.50;5006375;28;20046;-44
2023/12/10 10:11:26;;;;;;;1.92;0.47;;;;;;;7.33;81.39;98777.91;5005635;28;20053;-51
2023/12/10 10:13:53;;;;;;;7.28;1.08;;;;;;;7.39;80.20;98769.25;4998687;28;20570;-52
2023/12/10 10:16:20;;;;;;;11.43;1.17;;;;;;;7.45;80.20;98779.50;4996581;28;20053;-48
2023/12/10 10:18:47;;;;;;;4.30;1.17;;;;;;;7.51;80.13;98790.63;5013737;28;20133;-46
2023/12/10 10:21:15;;;;;;;7.00;1.23;;;;;;;7.54;80.30;98808.63;5001687;28;20060;-51
2023/12/10 10:23:43;;;;;;;8.45;1.10;;;;;;;7.57;80.52;98811.16;4998151;28;20046;-44
2023/12/10 10:26:11;;;;;;;11.90;1.58;;;;;;;7.63;80.48;98805.09;5006831;28;20042;-48
2023/12/10 10:28:38;;;;;;;12.77;2.20;;;;;;;7.66;79.36;98792.16;5002414;28;20073;-45
2023/12/10 10:31:05;;;;;;;14.70;2.20;;;;;;;7.67;79.79;98761.22;5003285;28;20054;-48
2023/12/10 10:33:32;;;;;;;14.52;1.40;;;;;;;7.72;79.72;98741.41;5009714;28;20137;-52
2023/12/10 10:36:00;;;;;;;4.55;1.33;;;;;;;7.76;79.83;98741.34;5003204;28;20053;-53
2023/12/10 10:38:29;;;;;;;8.90;1.63;;;;;;;7.78;79.22;98726.75;5005602;28;20061;-46
2023/12/10 10:40:58;;;;;;;14.23;1.52;;;;;;;7.79;78.98;98716.41;5002145;28;20052;-49
2023/12/10 10:43:26;;;;;;;10.05;1.48;;;;;;;7.77;80.39;98725.03;5002841;28;20054;-53
2023/12/10 10:45:53;;;;;;;14.82;1.63;;;;;;;7.80;79.24;98717.28;5003653;28;20452;-46
2023/12/10 10:48:25;;;;;;;14.98;1.13;;;;;;;7.79;79.28;98708.69;5006813;28;20049;-46
2023/12/10 10:50:54;;;;;;;8.85;1.20;;;;;;;7.77;79.43;98705.25;5004929;28;20484;-43
2023/12/10 10:53:22;;;;;;;7.63;1.83;;;;;;;7.74;80.58;98707.03;4994629;28;20116;-46
2023/12/10 10:55:49;;;;;;;12.65;1.60;;;;;;;7.75;80.08;98701.00;5002212;28;20689;-44
2023/12/10 10:58:32;;;;;;;12.73;1.55;;;;;;;7.74;79.78;98676.09;4997083;28;20049;-52
2023/12/10 11:00:59;;;;;;;13.88;1.25;;;;;;;7.75;78.99;98672.66;5009146;28;20046;-47
2023/12/10 11:03:27;;;;;;;6.93;1.17;;;;;;;7.75;79.00;98678.66;5001611;28;20057;-43
2023/12/10 11:05:57;;;;;;;17.10;1.40;;;;;;;7.75;79.73;98670.06;5008125;28;20071;-50
2023/12/10 11:08:27;;;;;;;9.93;1.13;;;;;;;7.75;79.50;98672.66;5007871;28;20049;-47
2023/12/10 11:11:01;;;;;;;9.18;1.02;;;;;;;7.71;79.29;98670.09;5013600;28;20042;-47
2023/12/10 11:13:43;;;;;;;10.60;1.27;;;;;;;7.69;78.96;98656.41;5005702;28;20388;-47
2023/12/10 11:16:10;;;;;;;5.68;1.23;;;;;;;7.70;79.60;98637.47;5008020;28;20057;-50
2023/12/10 11:18:57;;;;;;;13.30;1.52;;;;;;;7.68;80.14;98623.78;5013288;28;20050;-44
2023/12/10 11:21:24;;;;;;;11.05;1.50;;;;;;;7.74;79.98;98609.09;5010130;28;20046;-48
2023/12/10 11:23:51;;;;;;;12.65;0.90;;;;;;;7.77;80.27;98597.00;5007942;28;20087;-46
2023/12/10 11:26:18;;;;;;;14.20;1.90;;;;;;;7.82;79.44;98591.78;5006233;28;20056;-50
2023/12/10 11:28:45;;;;;;;7.93;1.70;;;;;;;7.82;80.11;98574.59;5007114;28;20062;-43
2023/12/10 11:31:12;;;;;;;7.70;1.40;;;;;;;7.86;79.97;98575.41;5008493;28;20049;-47
2023/12/10 11:33:40;;;;;;;7.25;1.10;;;;;;;7.86;79.68;98572.81;5004189;28;20042;-51
2023/12/10 11:36:09;;;;;;;14.43;1.67;;;;;;;7.87;80.02;98571.94;5003976;28;20128;-51
2023/12/10 11:38:56;;;;;;;7.13;1.23;;;;;;;7.88;80.38;98563.34;5005468;28;20054;-50
2023/12/10 11:41:27;;;;;;;13.50;1.48;;;;;;;7.89;79.55;98546.13;5008168;28;20042;-48
2023/12/10 11:43:54;;;;;;;8.63;2.05;;;;;;;7.90;80.11;98540.13;5002766;28;20065;-45